Time;durP1;ratioP1;P1;durP2;ratioP2;P2;SDS_P1;SDS_P2;PMS_P1;PMS_P2;Temp;Humidity;BMP_temperature;BMP_pressure;BME280_temperature;BME280_humidity;BME280_pressure;Samples;Min_cycle;Max_cycle;Signal;HPM_P1;HPM_P2
2023/10/24 00:00:04;;;;;;;7.00;6.30;;;;;;;;;;468976;28;1255;-71
2023/10/24 00:00:19;;;;;;;6.93;6.23;;;;;;;;;;466742;28;1180;-71
2023/10/24 00:00:35;;;;;;;6.82;6.22;;;;;;;;;;467423;28;1047;-71
2023/10/24 00:00:50;;;;;;;7.07;6.37;;;;;;;;;;469088;28;870;-71
2023/10/24 00:01:05;;;;;;;7.55;6.22;;;;;;;;;;468132;28;1078;-71
2023/10/24 00:01:21;;;;;;;7.53;6.10;;;;;;;;;;468559;28;1185;-71
2023/10/24 00:01:36;;;;;;;7.63;6.30;;;;;;;;;;468035;28;1148;-71
2023/10/24 00:01:51;;;;;;;8.68;6.50;;;;;;;;;;467599;28;903;-71
2023/10/24 00:02:07;;;;;;;7.97;6.37;;;;;;;;;;468572;28;2339;-71
2023/10/24 00:02:22;;;;;;;6.70;6.00;;;;;;;;;;469761;28;1006;-71
2023/10/24 00:02:37;;;;;;;6.60;5.90;;;;;;;;;;469843;28;1299;-71
2023/10/24 00:02:53;;;;;;;6.70;6.00;;;;;;;;;;470436;28;1262;-71
2023/10/24 00:03:08;;;;;;;6.80;6.10;;;;;;;;;;469706;28;1141;-71
2023/10/24 00:03:23;;;;;;;6.87;6.17;;;;;;;;;;469362;28;894;-71
2023/10/24 00:03:38;;;;;;;7.97;6.20;;;;;;;;;;469799;28;1160;-71
2023/10/24 00:03:54;;;;;;;8.10;6.10;;;;;;;;;;469916;28;913;-71
2023/10/24 00:04:09;;;;;;;7.47;6.10;;;;;;;;;;468805;28;1107;-72
2023/10/24 00:04:25;;;;;;;7.25;6.00;;;;;;;;;;470194;28;1999;-71
2023/10/24 00:04:40;;;;;;;7.83;6.10;;;;;;;;;;469331;28;1142;-71
2023/10/24 00:04:55;;;;;;;8.40;6.13;;;;;;;;;;469949;28;1257;-71
2023/10/24 00:05:11;;;;;;;8.33;6.00;;;;;;;;;;469814;28;1097;-71
2023/10/24 00:05:28;;;;;;;7.60;6.00;;;;;;;;;;467137;28;1008;-71
2023/10/24 00:05:43;;;;;;;6.90;6.20;;;;;;;;;;467060;28;1215;-71
2023/10/24 00:05:58;;;;;;;6.93;6.23;;;;;;;;;;467539;28;929;-71
2023/10/24 00:06:15;;;;;;;6.70;6.00;;;;;;;;;;468060;28;928;-71
2023/10/24 00:06:30;;;;;;;8.60;6.10;;;;;;;;;;469251;28;917;-71
2023/10/24 00:06:45;;;;;;;8.18;5.95;;;;;;;;;;468867;28;963;-71
2023/10/24 00:07:01;;;;;;;6.40;5.80;;;;;;;;;;468392;28;1207;-71
2023/10/24 00:07:16;;;;;;;8.93;5.90;;;;;;;;;;470130;28;1196;-71
2023/10/24 00:07:32;;;;;;;8.98;5.50;;;;;;;;;;469068;28;1084;-71
2023/10/24 00:07:47;;;;;;;5.80;5.23;;;;;;;;;;467878;28;1110;-71
2023/10/24 00:08:02;;;;;;;6.87;5.80;;;;;;;;;;467741;28;1101;-71
2023/10/24 00:08:18;;;;;;;7.38;6.22;;;;;;;;;;467662;28;1175;-71
2023/10/24 00:08:33;;;;;;;6.73;6.00;;;;;;;;;;468145;28;1122;-71
2023/10/24 00:08:49;;;;;;;6.88;5.97;;;;;;;;;;469113;28;985;-71
2023/10/24 00:09:04;;;;;;;6.80;5.70;;;;;;;;;;468315;28;1382;-71
2023/10/24 00:09:20;;;;;;;6.88;5.78;;;;;;;;;;469209;28;914;-72
2023/10/24 00:09:35;;;;;;;9.63;6.00;;;;;;;;;;470911;28;1139;-72
2023/10/24 00:09:50;;;;;;;9.97;5.67;;;;;;;;;;470538;28;850;-71
2023/10/24 00:10:06;;;;;;;6.75;5.70;;;;;;;;;;470498;28;1087;-71
2023/10/24 00:10:22;;;;;;;7.43;6.10;;;;;;;;;;467886;28;1277;-71
2023/10/24 00:10:37;;;;;;;7.70;5.93;;;;;;;;;;468797;28;1276;-72
2023/10/24 00:11:03;;;;;;;6.90;5.70;;;;;;;;;;467023;28;1314;-71
2023/10/24 00:11:18;;;;;;;6.53;5.80;;;;;;;;;;467175;28;1108;-71
2023/10/24 00:11:34;;;;;;;6.50;5.80;;;;;;;;;;468356;28;1107;-71
2023/10/24 00:11:49;;;;;;;6.57;5.80;;;;;;;;;;468335;28;1159;-71
2023/10/24 00:12:05;;;;;;;6.53;5.90;;;;;;;;;;468676;28;1000;-72
2023/10/24 00:12:20;;;;;;;6.60;5.90;;;;;;;;;;466271;28;850;-72
2023/10/24 00:12:36;;;;;;;6.70;5.80;;;;;;;;;;467736;28;1028;-71
2023/10/24 00:12:51;;;;;;;7.93;5.90;;;;;;;;;;470023;28;1019;-71
2023/10/24 00:13:07;;;;;;;8.43;6.10;;;;;;;;;;471862;28;1095;-71
2023/10/24 00:13:22;;;;;;;7.60;6.20;;;;;;;;;;469477;28;1160;-71
2023/10/24 00:13:38;;;;;;;6.93;6.10;;;;;;;;;;467057;28;1215;-71
2023/10/24 00:13:53;;;;;;;7.33;6.03;;;;;;;;;;468629;28;1029;-71
2023/10/24 00:14:08;;;;;;;7.27;6.13;;;;;;;;;;468048;28;930;-71
2023/10/24 00:14:24;;;;;;;6.60;5.90;;;;;;;;;;468654;28;1342;-71
2023/10/24 00:14:39;;;;;;;6.87;5.90;;;;;;;;;;468280;28;1077;-71
2023/10/24 00:14:57;;;;;;;7.47;6.20;;;;;;;;;;468216;28;917;-71
2023/10/24 00:15:12;;;;;;;6.90;6.20;;;;;;;;;;468504;28;1004;-71
2023/10/24 00:15:28;;;;;;;6.68;5.97;;;;;;;;;;470351;28;1113;-71
2023/10/24 00:15:43;;;;;;;6.60;5.83;;;;;;;;;;469623;28;1040;-71
2023/10/24 00:15:59;;;;;;;6.53;5.83;;;;;;;;;;469266;28;1020;-71
2023/10/24 00:16:14;;;;;;;6.40;5.70;;;;;;;;;;468489;28;925;-71
2023/10/24 00:16:29;;;;;;;6.28;5.68;;;;;;;;;;468190;28;914;-71
2023/10/24 00:16:45;;;;;;;6.70;5.90;;;;;;;;;;468844;28;1220;-71
2023/10/24 00:17:00;;;;;;;6.90;5.90;;;;;;;;;;468486;28;955;-71
2023/10/24 00:17:15;;;;;;;7.70;6.03;;;;;;;;;;468103;28;1219;-71
2023/10/24 00:17:31;;;;;;;8.77;6.05;;;;;;;;;;467671;28;1042;-71
2023/10/24 00:17:46;;;;;;;8.07;5.90;;;;;;;;;;468337;28;1265;-71
2023/10/24 00:18:02;;;;;;;6.90;6.00;;;;;;;;;;468190;28;977;-71
2023/10/24 00:18:17;;;;;;;6.47;5.80;;;;;;;;;;468183;28;1072;-71
2023/10/24 00:18:32;;;;;;;6.45;5.63;;;;;;;;;;467584;28;1099;-71
2023/10/24 00:18:48;;;;;;;6.40;5.67;;;;;;;;;;468310;28;1304;-71
2023/10/24 00:19:03;;;;;;;6.93;6.03;;;;;;;;;;468454;28;1106;-71
2023/10/24 00:19:18;;;;;;;7.65;6.25;;;;;;;;;;468505;28;1606;-71
2023/10/24 00:19:34;;;;;;;7.83;6.20;;;;;;;;;;467813;28;1271;-71
2023/10/24 00:19:49;;;;;;;9.07;6.20;;;;;;;;;;468014;28;1057;-71
2023/10/24 00:20:05;;;;;;;8.80;5.83;;;;;;;;;;466710;28;946;-71
2023/10/24 00:20:21;;;;;;;7.82;5.63;;;;;;;;;;466779;28;1421;-71
2023/10/24 00:20:37;;;;;;;6.90;5.50;;;;;;;;;;466670;28;919;-71
2023/10/24 00:20:52;;;;;;;6.28;5.68;;;;;;;;;;468414;28;890;-71
2023/10/24 00:21:08;;;;;;;7.03;6.05;;;;;;;;;;469646;28;921;-71
2023/10/24 00:21:23;;;;;;;7.72;5.93;;;;;;;;;;471189;28;1127;-71
2023/10/24 00:21:39;;;;;;;7.13;5.70;;;;;;;;;;472242;28;894;-71
2023/10/24 00:21:54;;;;;;;6.53;5.70;;;;;;;;;;470417;28;1135;-72
2023/10/24 00:22:09;;;;;;;6.70;5.70;;;;;;;;;;470692;28;1226;-72
2023/10/24 00:22:25;;;;;;;7.35;5.93;;;;;;;;;;469755;28;1036;-71
2023/10/24 00:22:40;;;;;;;7.00;6.00;;;;;;;;;;470384;28;898;-71
2023/10/24 00:22:56;;;;;;;6.68;5.97;;;;;;;;;;470372;28;1218;-71
2023/10/24 00:23:11;;;;;;;6.77;6.00;;;;;;;;;;470413;28;1021;-71
2023/10/24 00:23:29;;;;;;;6.70;5.82;;;;;;;;;;470716;28;1342;-71
2023/10/24 00:23:44;;;;;;;6.97;6.07;;;;;;;;;;470868;28;893;-71
2023/10/24 00:24:00;;;;;;;6.93;6.15;;;;;;;;;;470081;28;937;-71
2023/10/24 00:24:15;;;;;;;7.13;6.07;;;;;;;;;;470792;28;1258;-71
2023/10/24 00:24:30;;;;;;;7.13;5.90;;;;;;;;;;469874;28;1953;-71
2023/10/24 00:24:45;;;;;;;7.22;6.10;;;;;;;;;;470592;28;1261;-71
2023/10/24 00:25:01;;;;;;;8.87;6.40;;;;;;;;;;470385;28;996;-71
2023/10/24 00:25:16;;;;;;;8.00;6.20;;;;;;;;;;470121;28;917;-71
2023/10/24 00:25:32;;;;;;;7.53;6.13;;;;;;;;;;470172;28;1077;-71
2023/10/24 00:25:47;;;;;;;8.27;6.50;;;;;;;;;;468479;28;1118;-71
2023/10/24 00:26:02;;;;;;;7.43;6.33;;;;;;;;;;468302;28;917;-71
2023/10/24 00:26:18;;;;;;;6.43;5.72;;;;;;;;;;469818;28;995;-71
2023/10/24 00:26:33;;;;;;;7.27;5.87;;;;;;;;;;466354;28;1211;-71
2023/10/24 00:26:48;;;;;;;7.93;6.20;;;;;;;;;;465176;28;1077;-71
2023/10/24 00:27:04;;;;;;;7.07;6.13;;;;;;;;;;464565;28;2165;-71
2023/10/24 00:27:19;;;;;;;6.93;6.13;;;;;;;;;;464032;28;887;-71
2023/10/24 00:27:35;;;;;;;7.80;6.33;;;;;;;;;;464317;28;1301;-71
2023/10/24 00:27:50;;;;;;;7.80;6.40;;;;;;;;;;467156;28;969;-71
2023/10/24 00:28:05;;;;;;;8.30;6.30;;;;;;;;;;464662;28;1345;-71
2023/10/24 00:28:20;;;;;;;7.25;6.00;;;;;;;;;;464770;28;1234;-71
2023/10/24 00:28:36;;;;;;;6.77;6.07;;;;;;;;;;464654;28;1116;-71
2023/10/24 00:28:51;;;;;;;7.33;6.27;;;;;;;;;;464907;28;1054;-71
2023/10/24 00:29:06;;;;;;;7.15;6.13;;;;;;;;;;466791;28;946;-72
2023/10/24 00:29:22;;;;;;;6.93;5.97;;;;;;;;;;466272;28;1057;-71
2023/10/24 00:29:37;;;;;;;7.83;5.90;;;;;;;;;;466831;28;1009;-72
2023/10/24 00:29:52;;;;;;;8.13;5.77;;;;;;;;;;465112;28;1275;-71
2023/10/24 00:30:08;;;;;;;7.72;5.78;;;;;;;;;;465833;28;1244;-71
2023/10/24 00:30:23;;;;;;;8.07;5.82;;;;;;;;;;466967;28;1274;-71
2023/10/24 00:30:39;;;;;;;7.47;5.80;;;;;;;;;;467294;28;870;-71
2023/10/24 00:30:54;;;;;;;7.43;5.70;;;;;;;;;;466727;28;1263;-71
2023/10/24 00:31:09;;;;;;;7.22;5.50;;;;;;;;;;467748;28;1539;-71
2023/10/24 00:31:25;;;;;;;6.97;5.63;;;;;;;;;;465561;28;1112;-71
2023/10/24 00:31:40;;;;;;;7.80;5.93;;;;;;;;;;465209;28;916;-71
2023/10/24 00:31:55;;;;;;;7.83;5.83;;;;;;;;;;467302;28;965;-71
2023/10/24 00:32:11;;;;;;;7.13;5.80;;;;;;;;;;468900;28;901;-71
2023/10/24 00:32:26;;;;;;;7.00;5.90;;;;;;;;;;468203;28;1183;-71
2023/10/24 00:32:42;;;;;;;7.15;5.70;;;;;;;;;;468991;28;1143;-71
2023/10/24 00:32:57;;;;;;;6.65;5.60;;;;;;;;;;468221;28;927;-71
2023/10/24 00:33:13;;;;;;;6.37;5.77;;;;;;;;;;470155;28;1013;-71
2023/10/24 00:33:28;;;;;;;6.20;5.57;;;;;;;;;;469414;28;918;-72
2023/10/24 00:33:43;;;;;;;6.40;5.53;;;;;;;;;;469259;28;1244;-71
2023/10/24 00:33:59;;;;;;;7.30;5.70;;;;;;;;;;465188;28;924;-71
2023/10/24 00:34:16;;;;;;;7.80;5.80;;;;;;;;;;465564;28;1070;-71
2023/10/24 00:34:31;;;;;;;8.30;5.80;;;;;;;;;;465919;28;1299;-71
2023/10/24 00:34:47;;;;;;;7.47;5.70;;;;;;;;;;467189;28;949;-71
2023/10/24 00:35:03;;;;;;;6.97;5.37;;;;;;;;;;466022;28;1130;-71
2023/10/24 00:35:18;;;;;;;6.78;5.25;;;;;;;;;;465650;28;1012;-71
2023/10/24 00:35:34;;;;;;;6.43;5.27;;;;;;;;;;467465;28;1080;-71
2023/10/24 00:35:50;;;;;;;6.88;5.43;;;;;;;;;;467646;28;1274;-71
2023/10/24 00:36:05;;;;;;;6.77;5.43;;;;;;;;;;467697;28;1182;-71
2023/10/24 00:36:21;;;;;;;6.93;5.43;;;;;;;;;;467551;28;1041;-72
2023/10/24 00:36:38;;;;;;;7.65;5.88;;;;;;;;;;466720;28;1523;-71
2023/10/24 00:36:54;;;;;;;6.50;5.70;;;;;;;;;;467853;28;1089;-70
2023/10/24 00:37:09;;;;;;;7.30;5.83;;;;;;;;;;467256;28;1252;-71
2023/10/24 00:37:24;;;;;;;7.40;6.00;;;;;;;;;;467108;28;902;-71
2023/10/24 00:37:39;;;;;;;6.45;5.57;;;;;;;;;;468058;28;1072;-71
2023/10/24 00:37:55;;;;;;;6.97;5.50;;;;;;;;;;469996;28;1006;-72
2023/10/24 00:38:10;;;;;;;7.97;5.83;;;;;;;;;;470299;28;1337;-71
2023/10/24 00:38:25;;;;;;;7.78;5.88;;;;;;;;;;467578;28;1262;-71
2023/10/24 00:38:41;;;;;;;7.00;5.70;;;;;;;;;;467992;28;1062;-71
2023/10/24 00:38:56;;;;;;;6.80;5.63;;;;;;;;;;468580;28;1183;-71
2023/10/24 00:39:12;;;;;;;7.20;5.63;;;;;;;;;;468522;28;1207;-71
2023/10/24 00:39:27;;;;;;;7.82;5.68;;;;;;;;;;469154;28;909;-71
2023/10/24 00:39:43;;;;;;;6.88;5.82;;;;;;;;;;468446;28;954;-71
2023/10/24 00:39:58;;;;;;;7.27;5.80;;;;;;;;;;468301;28;1101;-71
2023/10/24 00:40:14;;;;;;;7.40;5.60;;;;;;;;;;467965;28;1064;-71
2023/10/24 00:40:32;;;;;;;7.07;5.63;;;;;;;;;;467746;28;1479;-71
2023/10/24 00:40:47;;;;;;;7.20;5.72;;;;;;;;;;466168;28;1593;-71
2023/10/24 00:41:02;;;;;;;7.30;5.60;;;;;;;;;;468448;28;996;-71
2023/10/24 00:41:18;;;;;;;6.80;5.60;;;;;;;;;;467389;28;1114;-71
2023/10/24 00:41:34;;;;;;;6.90;5.50;;;;;;;;;;466088;28;1529;-71
2023/10/24 00:41:49;;;;;;;7.60;5.60;;;;;;;;;;466653;28;957;-71
2023/10/24 00:42:05;;;;;;;7.38;5.75;;;;;;;;;;467027;28;918;-71
2023/10/24 00:42:20;;;;;;;7.33;5.70;;;;;;;;;;467032;28;1176;-71
2023/10/24 00:42:35;;;;;;;7.00;5.60;;;;;;;;;;469126;28;894;-72
2023/10/24 00:42:52;;;;;;;6.97;5.70;;;;;;;;;;470116;28;968;-71
2023/10/24 00:43:07;;;;;;;7.45;5.80;;;;;;;;;;470925;28;956;-71
2023/10/24 00:43:22;;;;;;;7.37;5.53;;;;;;;;;;469910;28;1180;-71
2023/10/24 00:43:37;;;;;;;7.53;5.50;;;;;;;;;;470502;28;1048;-71
2023/10/24 00:43:53;;;;;;;7.77;5.57;;;;;;;;;;470050;28;1415;-72
2023/10/24 00:44:08;;;;;;;7.50;5.60;;;;;;;;;;470684;28;1052;-71
2023/10/24 00:44:24;;;;;;;7.03;5.50;;;;;;;;;;470095;28;881;-71
2023/10/24 00:44:40;;;;;;;6.65;5.40;;;;;;;;;;468676;28;1971;-71
2023/10/24 00:44:55;;;;;;;6.60;5.30;;;;;;;;;;468106;28;903;-71
2023/10/24 00:45:10;;;;;;;7.03;5.20;;;;;;;;;;467575;28;1145;-71
2023/10/24 00:45:26;;;;;;;7.37;5.20;;;;;;;;;;467613;28;922;-71
2023/10/24 00:45:41;;;;;;;7.30;5.23;;;;;;;;;;465638;28;1128;-71
2023/10/24 00:45:57;;;;;;;7.60;5.25;;;;;;;;;;467267;28;1355;-71
2023/10/24 00:46:13;;;;;;;8.20;5.30;;;;;;;;;;465841;28;2180;-71
2023/10/24 00:46:29;;;;;;;8.07;5.53;;;;;;;;;;465282;28;1302;-71
2023/10/24 00:46:45;;;;;;;7.00;5.25;;;;;;;;;;465969;28;1053;-71
2023/10/24 00:47:01;;;;;;;6.97;5.23;;;;;;;;;;465169;28;1243;-71
2023/10/24 00:47:16;;;;;;;7.20;5.43;;;;;;;;;;467645;28;949;-71
2023/10/24 00:47:32;;;;;;;7.47;5.20;;;;;;;;;;467127;28;1128;-71
2023/10/24 00:47:48;;;;;;;6.63;5.10;;;;;;;;;;466355;28;1175;-71
2023/10/24 00:48:05;;;;;;;5.63;5.03;;;;;;;;;;465033;28;1323;-71
2023/10/24 00:48:20;;;;;;;6.18;5.05;;;;;;;;;;465859;28;965;-71
2023/10/24 00:48:35;;;;;;;6.47;4.97;;;;;;;;;;465937;28;1337;-71
2023/10/24 00:48:51;;;;;;;5.75;4.70;;;;;;;;;;468043;28;1050;-71
2023/10/24 00:49:08;;;;;;;5.67;4.60;;;;;;;;;;467200;28;1222;-71
2023/10/24 00:49:24;;;;;;;6.85;4.90;;;;;;;;;;467345;28;1071;-71
2023/10/24 00:49:40;;;;;;;6.60;5.18;;;;;;;;;;467802;28;2049;-71
2023/10/24 00:49:56;;;;;;;6.13;4.82;;;;;;;;;;469139;28;1035;-71
2023/10/24 00:50:13;;;;;;;6.40;4.93;;;;;;;;;;468591;28;1543;-71
2023/10/24 00:50:28;;;;;;;6.35;5.10;;;;;;;;;;468553;28;1337;-71
2023/10/24 00:50:44;;;;;;;7.35;5.00;;;;;;;;;;466166;28;1131;-71
2023/10/24 00:50:59;;;;;;;7.70;5.00;;;;;;;;;;466554;28;901;-71
2023/10/24 00:51:15;;;;;;;7.55;4.90;;;;;;;;;;466257;28;954;-71
2023/10/24 00:51:31;;;;;;;6.90;4.75;;;;;;;;;;467528;28;949;-71
2023/10/24 00:51:46;;;;;;;5.07;4.53;;;;;;;;;;468661;28;1160;-71
2023/10/24 00:52:02;;;;;;;5.40;4.70;;;;;;;;;;467793;28;1490;-71
2023/10/24 00:52:19;;;;;;;5.70;4.82;;;;;;;;;;469014;28;906;-71
2023/10/24 00:52:35;;;;;;;5.93;4.75;;;;;;;;;;469474;28;2045;-71
2023/10/24 00:52:50;;;;;;;5.72;4.60;;;;;;;;;;470080;28;1249;-71
2023/10/24 00:53:05;;;;;;;4.87;4.30;;;;;;;;;;470512;28;1081;-71
2023/10/24 00:53:21;;;;;;;5.53;4.63;;;;;;;;;;470271;28;925;-71
2023/10/24 00:53:36;;;;;;;5.93;4.80;;;;;;;;;;470829;28;1136;-71
2023/10/24 00:53:53;;;;;;;6.25;4.70;;;;;;;;;;468510;28;1206;-71
2023/10/24 00:54:10;;;;;;;6.95;4.90;;;;;;;;;;466949;28;1254;-71
2023/10/24 00:54:27;;;;;;;6.07;4.78;;;;;;;;;;467688;28;1042;-71
2023/10/24 00:54:43;;;;;;;6.25;4.78;;;;;;;;;;468252;28;1087;-71
2023/10/24 00:54:59;;;;;;;7.43;5.05;;;;;;;;;;467443;28;1167;-71
2023/10/24 00:55:14;;;;;;;8.47;5.13;;;;;;;;;;467449;28;906;-71
2023/10/24 00:55:30;;;;;;;7.65;4.80;;;;;;;;;;467354;28;1038;-71
2023/10/24 00:55:46;;;;;;;5.93;4.70;;;;;;;;;;466950;28;1080;-71
2023/10/24 00:56:02;;;;;;;6.20;4.88;;;;;;;;;;467772;28;922;-71
2023/10/24 00:56:18;;;;;;;5.85;4.72;;;;;;;;;;468156;28;956;-71
2023/10/24 00:56:34;;;;;;;6.20;4.68;;;;;;;;;;466490;28;925;-71
2023/10/24 00:56:50;;;;;;;6.50;4.78;;;;;;;;;;466664;28;1540;-71
2023/10/24 00:57:06;;;;;;;6.40;4.80;;;;;;;;;;468416;28;914;-71
2023/10/24 00:57:23;;;;;;;5.70;4.60;;;;;;;;;;469854;28;894;-70
2023/10/24 00:57:39;;;;;;;5.93;4.43;;;;;;;;;;468898;28;1326;-71
2023/10/24 00:57:54;;;;;;;5.95;4.32;;;;;;;;;;468924;28;1226;-71
2023/10/24 00:58:10;;;;;;;6.20;4.38;;;;;;;;;;468728;28;1038;-72
2023/10/24 00:58:27;;;;;;;7.20;4.32;;;;;;;;;;468478;28;1295;-71
2023/10/24 00:58:43;;;;;;;6.38;4.43;;;;;;;;;;468816;28;1055;-71
2023/10/24 00:59:00;;;;;;;6.07;4.70;;;;;;;;;;469018;28;949;-71
2023/10/24 00:59:17;;;;;;;6.40;4.50;;;;;;;;;;469842;28;1162;-71
2023/10/24 00:59:32;;;;;;;5.82;4.40;;;;;;;;;;468326;28;1278;-71
2023/10/24 00:59:49;;;;;;;5.63;4.32;;;;;;;;;;468739;28;1057;-71
2023/10/24 01:00:06;;;;;;;5.95;4.22;;;;;;;;;;468957;28;1048;-71
2023/10/24 01:00:24;;;;;;;6.17;4.47;;;;;;;;;;469223;28;1035;-71
2023/10/24 01:00:42;;;;;;;5.55;4.10;;;;;;;;;;466676;28;1350;-71
2023/10/24 01:01:00;;;;;;;5.07;4.35;;;;;;;;;;466700;28;933;-71
2023/10/24 01:01:17;;;;;;;6.00;4.50;;;;;;;;;;464155;28;1158;-71
2023/10/24 01:01:33;;;;;;;5.45;4.25;;;;;;;;;;464636;28;1041;-71
2023/10/24 01:01:49;;;;;;;6.13;4.40;;;;;;;;;;466260;28;1041;-72
2023/10/24 01:02:05;;;;;;;6.22;4.40;;;;;;;;;;465009;28;1333;-71
2023/10/24 01:02:21;;;;;;;5.95;4.07;;;;;;;;;;465599;28;1108;-71
2023/10/24 01:02:37;;;;;;;5.60;4.10;;;;;;;;;;467776;28;1078;-71
2023/10/24 01:02:54;;;;;;;5.50;4.40;;;;;;;;;;466796;28;1159;-71
2023/10/24 01:03:10;;;;;;;5.32;4.32;;;;;;;;;;466970;28;1048;-71
2023/10/24 01:03:26;;;;;;;5.07;4.10;;;;;;;;;;467464;28;1062;-71
2023/10/24 01:03:43;;;;;;;6.22;4.00;;;;;;;;;;467678;28;1603;-71
2023/10/24 01:03:59;;;;;;;7.25;4.07;;;;;;;;;;468219;28;902;-72
2023/10/24 01:04:18;;;;;;;6.40;4.10;;;;;;;;;;466685;28;1259;-71
2023/10/24 01:04:34;;;;;;;6.63;4.30;;;;;;;;;;464727;28;2030;-71
2023/10/24 01:04:53;;;;;;;8.00;4.57;;;;;;;;;;465256;28;1247;-71
2023/10/24 01:05:09;;;;;;;6.90;4.50;;;;;;;;;;466117;28;1241;-71
2023/10/24 01:05:25;;;;;;;6.07;4.47;;;;;;;;;;467226;28;1456;-71
2023/10/24 01:05:40;;;;;;;7.57;4.43;;;;;;;;;;466877;28;1125;-71
2023/10/24 01:05:56;;;;;;;7.33;4.47;;;;;;;;;;467822;28;851;-71
2023/10/24 01:06:12;;;;;;;5.55;4.40;;;;;;;;;;468315;28;997;-71
2023/10/24 01:06:27;;;;;;;5.73;4.40;;;;;;;;;;469664;28;914;-71
2023/10/24 01:06:42;;;;;;;5.70;4.13;;;;;;;;;;469163;28;1204;-71
2023/10/24 01:06:58;;;;;;;6.25;4.32;;;;;;;;;;468924;28;1300;-72
2023/10/24 01:07:14;;;;;;;5.88;4.22;;;;;;;;;;469027;28;1352;-71
2023/10/24 01:07:30;;;;;;;6.17;4.07;;;;;;;;;;469070;28;1088;-71
2023/10/24 01:07:46;;;;;;;7.43;4.22;;;;;;;;;;470616;28;1081;-71
2023/10/24 01:08:01;;;;;;;7.22;4.15;;;;;;;;;;468564;28;1143;-71
2023/10/24 01:08:16;;;;;;;6.13;3.90;;;;;;;;;;468639;28;1052;-71
2023/10/24 01:08:32;;;;;;;5.75;3.85;;;;;;;;;;466832;28;1271;-72
2023/10/24 01:08:47;;;;;;;5.77;3.93;;;;;;;;;;466866;28;876;-71
2023/10/24 01:09:03;;;;;;;5.27;3.87;;;;;;;;;;465762;28;1137;-71
2023/10/24 01:09:18;;;;;;;5.63;3.92;;;;;;;;;;466104;28;895;-71
2023/10/24 01:09:34;;;;;;;5.63;4.00;;;;;;;;;;466227;28;1032;-71
2023/10/24 01:09:49;;;;;;;5.87;3.90;;;;;;;;;;465779;28;1312;-71
2023/10/24 01:10:05;;;;;;;4.87;3.70;;;;;;;;;;465291;28;1276;-71
2023/10/24 01:10:20;;;;;;;4.93;3.83;;;;;;;;;;466030;28;1274;-71
2023/10/24 01:10:37;;;;;;;5.50;4.18;;;;;;;;;;466158;28;1076;-71
2023/10/24 01:10:52;;;;;;;5.32;3.88;;;;;;;;;;466055;28;977;-71
2023/10/24 01:11:08;;;;;;;5.40;3.63;;;;;;;;;;467598;28;909;-71
2023/10/24 01:11:24;;;;;;;5.18;3.75;;;;;;;;;;467750;28;1253;-71
2023/10/24 01:11:39;;;;;;;6.10;3.80;;;;;;;;;;469937;28;894;-71
2023/10/24 01:11:55;;;;;;;6.43;3.70;;;;;;;;;;469527;28;898;-72
2023/10/24 01:12:10;;;;;;;5.78;3.83;;;;;;;;;;471254;28;996;-71
2023/10/24 01:12:26;;;;;;;6.17;3.90;;;;;;;;;;472073;28;976;-71
2023/10/24 01:12:42;;;;;;;6.00;3.60;;;;;;;;;;472500;28;1523;-71
2023/10/24 01:13:04;;;;;;;5.93;3.60;;;;;;;;;;472305;28;943;-71
2023/10/24 01:13:19;;;;;;;6.15;3.72;;;;;;;;;;472167;28;1019;-71
2023/10/24 01:13:35;;;;;;;5.93;3.60;;;;;;;;;;470909;28;1163;-71
2023/10/24 01:13:51;;;;;;;5.50;3.65;;;;;;;;;;470743;28;1050;-71
2023/10/24 01:14:06;;;;;;;6.40;3.80;;;;;;;;;;471328;28;926;-71
2023/10/24 01:14:21;;;;;;;8.03;3.70;;;;;;;;;;468594;28;1323;-71
2023/10/24 01:14:37;;;;;;;6.68;3.53;;;;;;;;;;468834;28;937;-71
2023/10/24 01:14:52;;;;;;;4.23;3.27;;;;;;;;;;468265;28;961;-71
2023/10/24 01:15:08;;;;;;;4.77;3.40;;;;;;;;;;467308;28;1160;-71
2023/10/24 01:15:23;;;;;;;5.10;3.60;;;;;;;;;;468413;28;989;-71
2023/10/24 01:15:39;;;;;;;5.05;3.50;;;;;;;;;;467700;28;1224;-71
2023/10/24 01:15:54;;;;;;;5.20;3.70;;;;;;;;;;469124;28;1065;-71
2023/10/24 01:16:09;;;;;;;5.33;3.70;;;;;;;;;;468746;28;910;-71
2023/10/24 01:16:25;;;;;;;5.57;3.90;;;;;;;;;;468930;28;1258;-71
2023/10/24 01:16:43;;;;;;;5.47;3.95;;;;;;;;;;468757;28;1118;-71
2023/10/24 01:16:59;;;;;;;6.43;3.97;;;;;;;;;;468205;28;1006;-71
2023/10/24 01:17:14;;;;;;;6.07;4.23;;;;;;;;;;465965;28;1311;-71
2023/10/24 01:17:31;;;;;;;5.60;4.03;;;;;;;;;;464742;28;1350;-70
2023/10/24 01:17:50;;;;;;;6.32;3.90;;;;;;;;;;465212;28;895;-71
2023/10/24 01:18:05;;;;;;;5.30;3.67;;;;;;;;;;465497;28;1277;-71
2023/10/24 01:18:21;;;;;;;5.87;3.67;;;;;;;;;;466600;28;976;-71
2023/10/24 01:18:36;;;;;;;5.80;3.70;;;;;;;;;;465614;28;1232;-71
2023/10/24 01:18:52;;;;;;;5.28;3.65;;;;;;;;;;466751;28;906;-71
2023/10/24 01:19:07;;;;;;;6.13;3.70;;;;;;;;;;468312;28;906;-71
2023/10/24 01:19:22;;;;;;;6.17;3.90;;;;;;;;;;468810;28;1156;-71
2023/10/24 01:19:38;;;;;;;5.10;3.60;;;;;;;;;;468938;28;1047;-71
2023/10/24 01:19:53;;;;;;;4.80;3.35;;;;;;;;;;468989;28;1304;-71
2023/10/24 01:20:09;;;;;;;5.10;3.70;;;;;;;;;;471188;28;1014;-71
2023/10/24 01:20:24;;;;;;;4.40;3.55;;;;;;;;;;468098;28;1174;-71
2023/10/24 01:20:40;;;;;;;4.23;3.40;;;;;;;;;;468747;28;1167;-71
2023/10/24 01:20:55;;;;;;;5.13;3.60;;;;;;;;;;468580;28;1057;-71
2023/10/24 01:21:10;;;;;;;5.20;3.97;;;;;;;;;;469978;28;921;-71
2023/10/24 01:21:26;;;;;;;4.93;3.90;;;;;;;;;;468177;28;1140;-71
2023/10/24 01:21:46;;;;;;;4.90;3.80;;;;;;;;;;468819;28;868;-71
2023/10/24 01:22:01;;;;;;;5.38;3.90;;;;;;;;;;468959;28;1093;-71
2023/10/24 01:22:16;;;;;;;5.30;3.70;;;;;;;;;;469267;28;1162;-71
2023/10/24 01:22:32;;;;;;;4.45;3.60;;;;;;;;;;468407;28;1178;-71
2023/10/24 01:22:47;;;;;;;4.40;3.60;;;;;;;;;;468979;28;1029;-71
2023/10/24 01:23:03;;;;;;;6.43;3.70;;;;;;;;;;468701;28;1024;-72
2023/10/24 01:23:18;;;;;;;6.87;3.70;;;;;;;;;;469790;28;1151;-70
2023/10/24 01:23:35;;;;;;;5.33;3.60;;;;;;;;;;468336;28;1302;-70
2023/10/24 01:23:52;;;;;;;5.10;3.63;;;;;;;;;;468608;28;1073;-70
2023/10/24 01:24:08;;;;;;;5.90;3.75;;;;;;;;;;468341;28;941;-70
2023/10/24 01:24:23;;;;;;;5.50;3.50;;;;;;;;;;468575;28;1233;-70
2023/10/24 01:24:38;;;;;;;3.97;3.30;;;;;;;;;;470308;28;2029;-70
2023/10/24 01:24:55;;;;;;;4.03;3.50;;;;;;;;;;469264;28;1091;-70
2023/10/24 01:25:13;;;;;;;4.70;3.20;;;;;;;;;;471712;28;1274;-70
2023/10/24 01:25:28;;;;;;;4.03;2.97;;;;;;;;;;473220;28;1055;-70
2023/10/24 01:25:44;;;;;;;3.88;3.08;;;;;;;;;;468217;28;1147;-70
2023/10/24 01:26:00;;;;;;;5.22;3.13;;;;;;;;;;468617;28;1145;-70
2023/10/24 01:26:17;;;;;;;4.87;3.00;;;;;;;;;;468688;28;1143;-70
2023/10/24 01:26:32;;;;;;;3.97;3.13;;;;;;;;;;469135;28;1161;-70
2023/10/24 01:26:48;;;;;;;4.87;3.43;;;;;;;;;;468445;28;1013;-70
2023/10/24 01:27:04;;;;;;;5.57;3.40;;;;;;;;;;468817;28;1133;-70
2023/10/24 01:27:21;;;;;;;5.55;3.40;;;;;;;;;;468749;28;898;-70
2023/10/24 01:27:38;;;;;;;4.88;3.35;;;;;;;;;;469616;28;950;-70
2023/10/24 01:27:53;;;;;;;5.28;3.30;;;;;;;;;;471697;28;990;-70
2023/10/24 01:28:09;;;;;;;5.75;3.30;;;;;;;;;;472200;28;1196;-70
2023/10/24 01:28:26;;;;;;;5.50;3.50;;;;;;;;;;470735;28;878;-70
2023/10/24 01:28:42;;;;;;;4.97;3.60;;;;;;;;;;468915;28;1175;-70
2023/10/24 01:28:57;;;;;;;4.97;3.58;;;;;;;;;;469120;28;1037;-70
2023/10/24 01:29:12;;;;;;;4.53;3.63;;;;;;;;;;470557;28;918;-70
2023/10/24 01:29:28;;;;;;;5.63;3.70;;;;;;;;;;470845;28;856;-70
2023/10/24 01:29:43;;;;;;;6.13;3.63;;;;;;;;;;470964;28;1089;-70
2023/10/24 01:29:58;;;;;;;5.87;3.40;;;;;;;;;;468276;28;1135;-70
2023/10/24 01:30:14;;;;;;;6.00;3.50;;;;;;;;;;468427;28;906;-70
2023/10/24 01:30:29;;;;;;;4.78;3.45;;;;;;;;;;468429;28;870;-70
2023/10/24 01:30:44;;;;;;;5.83;3.43;;;;;;;;;;468271;28;1136;-70
2023/10/24 01:31:00;;;;;;;7.07;3.60;;;;;;;;;;468792;28;957;-70
2023/10/24 01:31:15;;;;;;;5.68;3.50;;;;;;;;;;467574;28;1107;-70
2023/10/24 01:31:31;;;;;;;4.60;3.40;;;;;;;;;;467831;28;957;-70
2023/10/24 01:31:47;;;;;;;4.65;3.40;;;;;;;;;;467641;28;1202;-70
2023/10/24 01:32:02;;;;;;;5.18;3.60;;;;;;;;;;469130;28;1294;-70
2023/10/24 01:32:17;;;;;;;5.03;3.57;;;;;;;;;;468107;28;1222;-70
2023/10/24 01:32:33;;;;;;;3.97;3.40;;;;;;;;;;467857;28;1074;-70
2023/10/24 01:32:48;;;;;;;4.47;3.60;;;;;;;;;;467683;28;1092;-70
2023/10/24 01:33:04;;;;;;;4.77;3.60;;;;;;;;;;464961;28;1195;-70
2023/10/24 01:33:19;;;;;;;4.35;3.22;;;;;;;;;;464975;28;1183;-71
2023/10/24 01:33:34;;;;;;;4.40;3.10;;;;;;;;;;465957;28;942;-70
2023/10/24 01:33:50;;;;;;;4.88;3.50;;;;;;;;;;465924;28;1213;-70
2023/10/24 01:34:05;;;;;;;4.93;3.70;;;;;;;;;;467016;28;882;-70
2023/10/24 01:34:20;;;;;;;4.33;3.40;;;;;;;;;;466449;28;1001;-70
2023/10/24 01:34:36;;;;;;;4.83;3.30;;;;;;;;;;466835;28;950;-70
2023/10/24 01:34:51;;;;;;;6.00;3.50;;;;;;;;;;468959;28;1167;-70
2023/10/24 01:35:08;;;;;;;5.33;3.50;;;;;;;;;;468810;28;1039;-70
2023/10/24 01:35:23;;;;;;;4.60;3.45;;;;;;;;;;467528;28;1205;-70
2023/10/24 01:35:38;;;;;;;4.77;3.20;;;;;;;;;;466757;28;1087;-70
2023/10/24 01:35:54;;;;;;;4.57;3.30;;;;;;;;;;468650;28;1120;-70
2023/10/24 01:36:09;;;;;;;4.28;3.20;;;;;;;;;;466745;28;1412;-70
2023/10/24 01:36:24;;;;;;;4.90;3.27;;;;;;;;;;466947;28;1073;-70
2023/10/24 01:36:40;;;;;;;5.17;3.40;;;;;;;;;;467216;28;1086;-70
2023/10/24 01:36:55;;;;;;;4.50;3.08;;;;;;;;;;468434;28;1203;-70
2023/10/24 01:37:10;;;;;;;5.57;3.37;;;;;;;;;;467555;28;1249;-70
2023/10/24 01:37:26;;;;;;;6.40;3.70;;;;;;;;;;469805;28;956;-70
2023/10/24 01:37:41;;;;;;;6.40;3.78;;;;;;;;;;469253;28;1130;-70